Newton, New Hampshire
Current Conditions -  °F | °C
As of 4:54 PM on Monday 20 Oct 2014 (Local Time) from KLWM Reporting Station
Clear Clear  
Wind Chill: 55°   Ceiling: Unl
Heat Index: 55°   Visibility: 10mi
Dew Point: 32°   Wind: 13mph
Humidity: 42%   Direction: 250°WSW
Pressure: 29.97"   Gusts: NA
Location:  42.87°N, 71.03°W
Report Text: KLWM 202054Z 25011KT 10SM CLR 13/00 A2997 RMK AO2 SLP150 T01280000 55004
Loading
Personal Weather Stations






























Interactive Weather Map
Tropical Storm Tracking
New forecast layout! Learn more

10-Day Weather Forecast

Advertisements
Track Severe Weather on mobile